Columbus, Mississippi
Current Conditions -  °F | °C
As of 3:50 PM on Tuesday 21 Oct 2014 (Local Time) from KGTR Reporting Station
Broken Clouds Broken Clouds  
Wind Chill: 79°   Ceiling: 5000
Heat Index: 79°   Visibility: 10mi
Dew Point: 54°   Wind: 12mph
Humidity: 42%   Direction: 320°NW
Pressure: 30"   Gusts: NA
Location:  33.5°N, 88.43°W
Report Text: KGTR 212050Z 32010KT 10SM BKN050 26/12 A3000
Loading
Personal Weather Stations






























Interactive Weather Map New forecast layout! Learn more

10-Day Weather Forecast

Advertisements
Track Severe Weather on mobile